Punta Gialla — IWUC — position and weather

sailwx.info

Track history (hours):
 
Tides and Currents Weather Stations Pressure Air Temp Water Temp Dewpoint Dewpoint Depression Visibility Wind Speed Wind Dir Waves Ship Positions

Punta Gialla

Last reported at 2015-Jul-07 08:33 UTC. Time now 2015-Jul-07 08:57 UTC.
Position N 44°24' E 008°55'.

Length 52 m; draft 1.8 m.

Type: Tanker. MMSI: 247077500.

Date/timePositionNaut miles runAvg speedWind from/ knotsBaromVisibWave heightAir tempDewpointWater temp
2015-Jul-07 08:33N 44°24' E 008°55'0 0.0
2015-Jul-07 07:33N 44°24' E 008°55'0 0.0
2015-Jul-07 06:33N 44°24' E 008°55'0 0.0
2015-Jul-07 05:33N 44°24' E 008°55'0 0.0
2015-Jul-07 04:33N 44°24' E 008°55'0 0.0
2015-Jul-07 03:33N 44°24' E 008°55'0 0.0
2015-Jul-07 02:33N 44°24' E 008°55'0 0.0
2015-Jul-07 01:33N 44°24' E 008°55'0 0.0
2015-Jul-07 00:33N 44°24' E 008°55'0 0.0
2015-Jul-06 23:33N 44°24' E 008°55'0 0.0
2015-Jul-06 22:33N 44°24' E 008°55'0 0.0
2015-Jul-06 21:33N 44°24' E 008°55'0 0.0
2015-Jul-06 20:33N 44°24' E 008°55'0 0.0
2015-Jul-06 19:33N 44°24' E 008°55'0 0.2
2015-Jul-06 18:33N 44°24' E 008°55'8 8.1
2015-Jul-06 17:33N 44°20' E 008°45'12 9.6
2015-Jul-06 16:16N 44°16' E 008°29'1 1.3
2015-Jul-06 15:29N 44°16' E 008°27'0 0.0
2015-Jul-06 14:26N 44°16' E 008°27'0 0.0
2015-Jul-06 13:32N 44°16' E 008°27'9 4.8
2015-Jul-06 11:33N 44°18' E 008°40'8 8.4
2015-Jul-06 10:33N 44°22' E 008°50'4 3.7
2015-Jul-06 09:33N 44°24' E 008°54'0 0.0
2015-Jul-06 08:33N 44°24' E 008°54'0 0.0
2015-Jul-06 07:33N 44°24' E 008°54'0 0.0
2015-Jul-06 06:33N 44°24' E 008°54'0 0.0
2015-Jul-04 22:34N 44°24' E 008°54'0 0.0
2015-Jul-04 21:33N 44°24' E 008°54'0 0.0
2015-Jul-04 20:32N 44°24' E 008°54'0 0.0
2015-Jul-04 19:34N 44°24' E 008°54'0 0.0
2015-Jul-04 18:33N 44°24' E 008°54'0 0.0
2015-Jul-04 17:33N 44°24' E 008°54'0 0.0
2015-Jul-04 16:33N 44°24' E 008°54'0 0.0
2015-Jul-04 15:33N 44°24' E 008°54'0 0.0
2015-Jul-04 14:33N 44°24' E 008°54'0 0.0
2015-Jul-04 13:33N 44°24' E 008°54'0 0.0
2015-Jul-04 12:34N 44°24' E 008°54'0 0.4
2015-Jul-04 11:33N 44°24' E 008°55'0 0.0
2015-Jul-04 10:34N 44°24' E 008°55'0 0.0
2015-Jul-04 09:33N 44°24' E 008°55'0 0.0
2015-Jul-04 08:33N 44°24' E 008°55'0 0.1
2015-Jul-04 07:33N 44°24' E 008°55'0 0.0
2015-Jul-04 06:33N 44°24' E 008°55'0 0.4
2015-Jul-04 05:34N 44°24' E 008°54'0 0.0
2015-Jul-04 01:07N 44°24' E 008°54'0 0.0
2015-Jul-04 00:33N 44°24' E 008°54'0 0.0
2015-Jul-03 23:33N 44°24' E 008°54'0 0.0
2015-Jul-03 22:33N 44°24' E 008°54'0 0.0
2015-Jul-03 21:33N 44°24' E 008°54'0 0.0
2015-Jul-03 20:33N 44°24' E 008°54'0 0.0
2015-Jul-03 19:33N 44°24' E 008°54'0 0.0
2015-Jul-03 18:33N 44°24' E 008°54'0 0.0
2015-Jul-03 17:33N 44°24' E 008°54'0 0.0
2015-Jul-03 16:33N 44°24' E 008°54'0 0.0
2015-Jul-03 15:33N 44°24' E 008°54'0 0.0
2015-Jul-03 14:32N 44°24' E 008°54'0 0.0
2015-Jul-03 13:33N 44°24' E 008°54'0 0.4
2015-Jul-03 12:33N 44°24' E 008°55'0 0.4
2015-Jul-03 11:33N 44°24' E 008°54'0 0.0
2015-Jul-03 10:33N 44°24' E 008°54'0 0.4
2015-Jul-03 09:33N 44°24' E 008°55'1 0.8
2015-Jul-03 08:33N 44°25' E 008°55'1 0.6
2015-Jul-03 07:33N 44°24' E 008°54'0 0.0
2015-Jul-03 06:33N 44°24' E 008°54'0 0.0
2015-Jul-03 05:22N 44°24' E 008°54'0 0.0
2015-Jul-03 04:33N 44°24' E 008°54'0 0.0
2015-Jul-03 03:33N 44°24' E 008°54'0 0.0
2015-Jul-03 02:33N 44°24' E 008°54'0 0.0
2015-Jul-03 01:33N 44°24' E 008°54'0 0.0
2015-Jul-03 00:33N 44°24' E 008°54'0 0.0
2015-Jul-02 23:33N 44°24' E 008°54'0 0.0
2015-Jul-02 22:33N 44°24' E 008°54'0 0.0
2015-Jul-02 21:33N 44°24' E 008°54'0 0.0
2015-Jul-02 20:33N 44°24' E 008°54'0 0.0
2015-Jul-02 19:33N 44°24' E 008°54'0 0.0
2015-Jul-02 18:33N 44°24' E 008°54'2 2.2
2015-Jul-02 17:33N 44°23' E 008°52'9 8.5
2015-Jul-02 16:33N 44°18' E 008°43'8 8.1
2015-Jul-02 15:31N 44°16' E 008°31'3 3.1
2015-Jul-02 14:33N 44°16' E 008°27'0 0.0
2015-Jul-02 13:33N 44°16' E 008°27'0 0.0
2015-Jul-02 12:26N 44°16' E 008°27'6 7.2
2015-Jul-02 11:33N 44°16' E 008°36'8 8.1
2015-Jul-02 10:33N 44°20' E 008°46'7 7.0
2015-Jul-02 09:34N 44°24' E 008°53'1 0.7
2015-Jul-02 08:34N 44°24' E 008°54'0 0.0
2015-Jul-02 05:33N 44°24' E 008°54'0 0.0
2015-Jul-02 04:33N 44°24' E 008°54'0 0.0
2015-Jul-02 03:33N 44°24' E 008°54'0 0.0
2015-Jul-02 02:33N 44°24' E 008°54'0 0.0
2015-Jul-02 01:33N 44°24' E 008°54'0 0.0
2015-Jul-02 00:33N 44°24' E 008°54'0 0.0
2015-Jul-01 23:33N 44°24' E 008°54'0 0.0
2015-Jul-01 22:33N 44°24' E 008°54'0 0.0
2015-Jul-01 21:33N 44°24' E 008°54'0 0.0
2015-Jul-01 20:33N 44°24' E 008°54'0 0.0
2015-Jul-01 19:33N 44°24' E 008°54'0 0.0
2015-Jul-01 18:33N 44°24' E 008°54'1 0.5
2015-Jul-01 17:33N 44°25' E 008°55'0 0.0
2015-Jul-01 16:33N 44°25' E 008°55'0 0.0
2015-Jul-01 15:33N 44°25' E 008°55'1 0.5
2015-Jul-01 14:33N 44°24' E 008°54'0 0.0
2015-Jul-01 13:33N 44°24' E 008°54'0 0.0
2015-Jul-01 12:33N 44°24' E 008°54'0 0.1
2015-Jul-01 11:33N 44°24' E 008°54'0 0.0
2015-Jul-01 10:33N 44°24' E 008°54'0 0.0
2015-Jul-01 09:33N 44°24' E 008°54'0 0.0
2015-Jul-01 08:33N 44°24' E 008°54'0 0.0
2015-Jul-01 03:05N 44°24' E 008°54'0 0.0
2015-Jul-01 02:33N 44°24' E 008°54'0 0.0
2015-Jul-01 01:33N 44°24' E 008°54'0 0.0
2015-Jul-01 00:33N 44°24' E 008°54'0 0.0
2015-Jun-30 23:33N 44°24' E 008°54'0 0.0
2015-Jun-30 22:33N 44°24' E 008°54'0 0.0
2015-Jun-30 21:33N 44°24' E 008°54'0 0.0
2015-Jun-30 20:33N 44°24' E 008°54'0 0.0
2015-Jun-30 19:33N 44°24' E 008°54'0 0.0
2015-Jun-30 18:33N 44°24' E 008°54'0 0.0
2015-Jun-30 17:33N 44°24' E 008°54'0 0.0
2015-Jun-30 16:33N 44°24' E 008°54'0 0.0
2015-Jun-30 15:33N 44°24' E 008°54'0 0.0
2015-Jun-30 14:33N 44°24' E 008°54'0 0.0
2015-Jun-30 13:33N 44°24' E 008°54'0 0.0
2015-Jun-30 12:33N 44°24' E 008°54'1 0.5
2015-Jun-30 11:33N 44°24' E 008°55'0 0.1
2015-Jun-30 10:33N 44°24' E 008°55'0 0.4
2015-Jun-30 09:33N 44°24' E 008°55'0 0.0
2015-Jun-30 08:33N 44°24' E 008°55'0 0.0
2015-Jun-30 07:33N 44°24' E 008°55'0 0.4
2015-Jun-30 06:33N 44°24' E 008°54'0 0.0
2015-Jun-30 05:33N 44°24' E 008°54'0 0.0
2015-Jun-30 03:33N 44°24' E 008°54'0 0.0
2015-Jun-30 02:33N 44°24' E 008°54'0 0.0
2015-Jun-30 01:33N 44°24' E 008°54'0 0.0
2015-Jun-30 00:33N 44°24' E 008°54'0 0.0
2015-Jun-29 23:33N 44°24' E 008°54'0 0.0
2015-Jun-29 22:33N 44°24' E 008°54'0 0.0
2015-Jun-29 21:33N 44°24' E 008°54'0 0.0
2015-Jun-29 20:33N 44°24' E 008°54'0 0.0
2015-Jun-29 19:33N 44°24' E 008°54'0 0.0
2015-Jun-29 18:34N 44°24' E 008°54'0 0.0
2015-Jun-29 17:33N 44°24' E 008°54'0 0.0
2015-Jun-29 16:33N 44°24' E 008°54'0 0.0
2015-Jun-29 15:33N 44°24' E 008°54'1 0.6
2015-Jun-29 14:33N 44°24' E 008°55'0 0.1
2015-Jun-29 13:33N 44°24' E 008°55'0 0.0
2015-Jun-29 12:33N 44°24' E 008°55'1 1.0
2015-Jun-29 11:33N 44°24' E 008°54'0 0.0
2015-Jun-29 10:33N 44°24' E 008°54'0 0.3
2015-Jun-29 09:33N 44°24' E 008°54'1 0.8
2015-Jun-29 08:33N 44°24' E 008°55'0 0.4
2015-Jun-29 07:33N 44°24' E 008°54'0 0.0
2015-Jun-29 06:33N 44°24' E 008°54'0 0.0
2015-Jun-28 07:34N 44°24' E 008°54'0 0.0
2015-Jun-28 06:34N 44°24' E 008°54'0 0.0
2015-Jun-28 05:34N 44°24' E 008°54'0 0.0
2015-Jun-28 04:33N 44°24' E 008°54'0 0.0
2015-Jun-28 03:33N 44°24' E 008°54'0 0.0
2015-Jun-28 02:34N 44°24' E 008°54'0 0.0
2015-Jun-28 01:34N 44°24' E 008°54'0 0.0
2015-Jun-28 00:33N 44°24' E 008°54'0 0.0
2015-Jun-27 23:34N 44°24' E 008°54'0 0.0
2015-Jun-27 22:34N 44°24' E 008°54'0 0.0
2015-Jun-27 21:33N 44°24' E 008°54'0 0.0
2015-Jun-27 20:33N 44°24' E 008°54'0 0.0
2015-Jun-27 19:33N 44°24' E 008°54'0 0.1
2015-Jun-27 18:34N 44°24' E 008°54'1 0.6
2015-Jun-27 17:34N 44°25' E 008°55'0 0.0
2015-Jun-27 16:33N 44°25' E 008°55'1 0.7
2015-Jun-27 15:33N 44°24' E 008°55'1 0.6
2015-Jun-27 14:33N 44°24' E 008°54'0 0.0
2015-Jun-27 13:33N 44°24' E 008°54'0 0.0
2015-Jun-27 12:33N 44°24' E 008°54'0 0.0
2015-Jun-27 11:33N 44°24' E 008°54'0 0.0
2015-Jun-27 10:33N 44°24' E 008°54'0 0.0
2015-Jun-27 09:33N 44°24' E 008°54'  
Track history (hours):
 
Tides and Currents Weather Stations Pressure Air Temp Water Temp Dewpoint Dewpoint Depression Visibility Wind Speed Wind Dir Waves Ship Positions

Punta Gialla

Last reported at 2015-Jul-07 08:33 UTC. Time now 2015-Jul-07 08:57 UTC.
Position N 44°24' E 008°55'.

Length 52 m; draft 1.8 m.

Type: Tanker. MMSI: 247077500.

Date/timePositionNaut miles runAvg speedWind from/ knotsBaromVisibWave heightAir tempDewpointWater temp
2015-Jul-07 08:33N 44°24' E 008°55'0 0.0
2015-Jul-07 07:33N 44°24' E 008°55'0 0.0
2015-Jul-07 06:33N 44°24' E 008°55'0 0.0
2015-Jul-07 05:33N 44°24' E 008°55'0 0.0
2015-Jul-07 04:33N 44°24' E 008°55'0 0.0
2015-Jul-07 03:33N 44°24' E 008°55'0 0.0
2015-Jul-07 02:33N 44°24' E 008°55'0 0.0
2015-Jul-07 01:33N 44°24' E 008°55'0 0.0
2015-Jul-07 00:33N 44°24' E 008°55'0 0.0
2015-Jul-06 23:33N 44°24' E 008°55'0 0.0
2015-Jul-06 22:33N 44°24' E 008°55'0 0.0
2015-Jul-06 21:33N 44°24' E 008°55'0 0.0
2015-Jul-06 20:33N 44°24' E 008°55'0 0.0
2015-Jul-06 19:33N 44°24' E 008°55'0 0.2
2015-Jul-06 18:33N 44°24' E 008°55'8 8.1
2015-Jul-06 17:33N 44°20' E 008°45'12 9.6
2015-Jul-06 16:16N 44°16' E 008°29'1 1.3
2015-Jul-06 15:29N 44°16' E 008°27'0 0.0
2015-Jul-06 14:26N 44°16' E 008°27'0 0.0
2015-Jul-06 13:32N 44°16' E 008°27'9 4.8
2015-Jul-06 11:33N 44°18' E 008°40'8 8.4
2015-Jul-06 10:33N 44°22' E 008°50'4 3.7
2015-Jul-06 09:33N 44°24' E 008°54'0 0.0
2015-Jul-06 08:33N 44°24' E 008°54'0 0.0
2015-Jul-06 07:33N 44°24' E 008°54'0 0.0
2015-Jul-06 06:33N 44°24' E 008°54'0 0.0
2015-Jul-04 22:34N 44°24' E 008°54'0 0.0
2015-Jul-04 21:33N 44°24' E 008°54'0 0.0
2015-Jul-04 20:32N 44°24' E 008°54'0 0.0
2015-Jul-04 19:34N 44°24' E 008°54'0 0.0
2015-Jul-04 18:33N 44°24' E 008°54'0 0.0
2015-Jul-04 17:33N 44°24' E 008°54'0 0.0
2015-Jul-04 16:33N 44°24' E 008°54'0 0.0
2015-Jul-04 15:33N 44°24' E 008°54'0 0.0
2015-Jul-04 14:33N 44°24' E 008°54'0 0.0
2015-Jul-04 13:33N 44°24' E 008°54'0 0.0
2015-Jul-04 12:34N 44°24' E 008°54'0 0.4
2015-Jul-04 11:33N 44°24' E 008°55'0 0.0
2015-Jul-04 10:34N 44°24' E 008°55'0 0.0
2015-Jul-04 09:33N 44°24' E 008°55'0 0.0
2015-Jul-04 08:33N 44°24' E 008°55'0 0.1
2015-Jul-04 07:33N 44°24' E 008°55'0 0.0
2015-Jul-04 06:33N 44°24' E 008°55'0 0.4
2015-Jul-04 05:34N 44°24' E 008°54'0 0.0
2015-Jul-04 01:07N 44°24' E 008°54'0 0.0
2015-Jul-04 00:33N 44°24' E 008°54'0 0.0
2015-Jul-03 23:33N 44°24' E 008°54'0 0.0
2015-Jul-03 22:33N 44°24' E 008°54'0 0.0
2015-Jul-03 21:33N 44°24' E 008°54'0 0.0
2015-Jul-03 20:33N 44°24' E 008°54'0 0.0
2015-Jul-03 19:33N 44°24' E 008°54'0 0.0
2015-Jul-03 18:33N 44°24' E 008°54'0 0.0
2015-Jul-03 17:33N 44°24' E 008°54'0 0.0
2015-Jul-03 16:33N 44°24' E 008°54'0 0.0
2015-Jul-03 15:33N 44°24' E 008°54'0 0.0
2015-Jul-03 14:32N 44°24' E 008°54'0 0.0
2015-Jul-03 13:33N 44°24' E 008°54'0 0.4
2015-Jul-03 12:33N 44°24' E 008°55'0 0.4
2015-Jul-03 11:33N 44°24' E 008°54'0 0.0
2015-Jul-03 10:33N 44°24' E 008°54'0 0.4
2015-Jul-03 09:33N 44°24' E 008°55'1 0.8
2015-Jul-03 08:33N 44°25' E 008°55'1 0.6
2015-Jul-03 07:33N 44°24' E 008°54'0 0.0
2015-Jul-03 06:33N 44°24' E 008°54'0 0.0
2015-Jul-03 05:22N 44°24' E 008°54'0 0.0
2015-Jul-03 04:33N 44°24' E 008°54'0 0.0
2015-Jul-03 03:33N 44°24' E 008°54'0 0.0
2015-Jul-03 02:33N 44°24' E 008°54'0 0.0
2015-Jul-03 01:33N 44°24' E 008°54'0 0.0
2015-Jul-03 00:33N 44°24' E 008°54'0 0.0
2015-Jul-02 23:33N 44°24' E 008°54'0 0.0
2015-Jul-02 22:33N 44°24' E 008°54'0 0.0
2015-Jul-02 21:33N 44°24' E 008°54'0 0.0
2015-Jul-02 20:33N 44°24' E 008°54'0 0.0
2015-Jul-02 19:33N 44°24' E 008°54'0 0.0
2015-Jul-02 18:33N 44°24' E 008°54'2 2.2
2015-Jul-02 17:33N 44°23' E 008°52'9 8.5
2015-Jul-02 16:33N 44°18' E 008°43'8 8.1
2015-Jul-02 15:31N 44°16' E 008°31'3 3.1
2015-Jul-02 14:33N 44°16' E 008°27'0 0.0
2015-Jul-02 13:33N 44°16' E 008°27'0 0.0
2015-Jul-02 12:26N 44°16' E 008°27'6 7.2
2015-Jul-02 11:33N 44°16' E 008°36'8 8.1
2015-Jul-02 10:33N 44°20' E 008°46'7 7.0
2015-Jul-02 09:34N 44°24' E 008°53'1 0.7
2015-Jul-02 08:34N 44°24' E 008°54'0 0.0
2015-Jul-02 05:33N 44°24' E 008°54'0 0.0
2015-Jul-02 04:33N 44°24' E 008°54'0 0.0
2015-Jul-02 03:33N 44°24' E 008°54'0 0.0
2015-Jul-02 02:33N 44°24' E 008°54'0 0.0
2015-Jul-02 01:33N 44°24' E 008°54'0 0.0
2015-Jul-02 00:33N 44°24' E 008°54'0 0.0
2015-Jul-01 23:33N 44°24' E 008°54'0 0.0
2015-Jul-01 22:33N 44°24' E 008°54'0 0.0
2015-Jul-01 21:33N 44°24' E 008°54'0 0.0
2015-Jul-01 20:33N 44°24' E 008°54'0 0.0
2015-Jul-01 19:33N 44°24' E 008°54'0 0.0
2015-Jul-01 18:33N 44°24' E 008°54'1 0.5
2015-Jul-01 17:33N 44°25' E 008°55'0 0.0
2015-Jul-01 16:33N 44°25' E 008°55'0 0.0
2015-Jul-01 15:33N 44°25' E 008°55'1 0.5
2015-Jul-01 14:33N 44°24' E 008°54'0 0.0
2015-Jul-01 13:33N 44°24' E 008°54'0 0.0
2015-Jul-01 12:33N 44°24' E 008°54'0 0.1
2015-Jul-01 11:33N 44°24' E 008°54'0 0.0
2015-Jul-01 10:33N 44°24' E 008°54'0 0.0
2015-Jul-01 09:33N 44°24' E 008°54'0 0.0
2015-Jul-01 08:33N 44°24' E 008°54'0 0.0
2015-Jul-01 03:05N 44°24' E 008°54'0 0.0
2015-Jul-01 02:33N 44°24' E 008°54'0 0.0
2015-Jul-01 01:33N 44°24' E 008°54'0 0.0
2015-Jul-01 00:33N 44°24' E 008°54'0 0.0
2015-Jun-30 23:33N 44°24' E 008°54'0 0.0
2015-Jun-30 22:33N 44°24' E 008°54'0 0.0
2015-Jun-30 21:33N 44°24' E 008°54'0 0.0
2015-Jun-30 20:33N 44°24' E 008°54'0 0.0
2015-Jun-30 19:33N 44°24' E 008°54'0 0.0
2015-Jun-30 18:33N 44°24' E 008°54'0 0.0
2015-Jun-30 17:33N 44°24' E 008°54'0 0.0
2015-Jun-30 16:33N 44°24' E 008°54'0 0.0
2015-Jun-30 15:33N 44°24' E 008°54'0 0.0
2015-Jun-30 14:33N 44°24' E 008°54'0 0.0
2015-Jun-30 13:33N 44°24' E 008°54'0 0.0
2015-Jun-30 12:33N 44°24' E 008°54'1 0.5
2015-Jun-30 11:33N 44°24' E 008°55'0 0.1
2015-Jun-30 10:33N 44°24' E 008°55'0 0.4
2015-Jun-30 09:33N 44°24' E 008°55'0 0.0
2015-Jun-30 08:33N 44°24' E 008°55'0 0.0
2015-Jun-30 07:33N 44°24' E 008°55'0 0.4
2015-Jun-30 06:33N 44°24' E 008°54'0 0.0
2015-Jun-30 05:33N 44°24' E 008°54'0 0.0
2015-Jun-30 03:33N 44°24' E 008°54'0 0.0
2015-Jun-30 02:33N 44°24' E 008°54'0 0.0
2015-Jun-30 01:33N 44°24' E 008°54'0 0.0
2015-Jun-30 00:33N 44°24' E 008°54'0 0.0
2015-Jun-29 23:33N 44°24' E 008°54'0 0.0
2015-Jun-29 22:33N 44°24' E 008°54'0 0.0
2015-Jun-29 21:33N 44°24' E 008°54'0 0.0
2015-Jun-29 20:33N 44°24' E 008°54'0 0.0
2015-Jun-29 19:33N 44°24' E 008°54'0 0.0
2015-Jun-29 18:34N 44°24' E 008°54'0 0.0
2015-Jun-29 17:33N 44°24' E 008°54'0 0.0
2015-Jun-29 16:33N 44°24' E 008°54'0 0.0
2015-Jun-29 15:33N 44°24' E 008°54'1 0.6
2015-Jun-29 14:33N 44°24' E 008°55'0 0.1
2015-Jun-29 13:33N 44°24' E 008°55'0 0.0
2015-Jun-29 12:33N 44°24' E 008°55'1 1.0
2015-Jun-29 11:33N 44°24' E 008°54'0 0.0
2015-Jun-29 10:33N 44°24' E 008°54'0 0.3
2015-Jun-29 09:33N 44°24' E 008°54'1 0.8
2015-Jun-29 08:33N 44°24' E 008°55'0 0.4
2015-Jun-29 07:33N 44°24' E 008°54'0 0.0
2015-Jun-29 06:33N 44°24' E 008°54'0 0.0
2015-Jun-28 07:34N 44°24' E 008°54'0 0.0
2015-Jun-28 06:34N 44°24' E 008°54'0 0.0
2015-Jun-28 05:34N 44°24' E 008°54'0 0.0
2015-Jun-28 04:33N 44°24' E 008°54'0 0.0
2015-Jun-28 03:33N 44°24' E 008°54'0 0.0
2015-Jun-28 02:34N 44°24' E 008°54'0 0.0
2015-Jun-28 01:34N 44°24' E 008°54'0 0.0
2015-Jun-28 00:33N 44°24' E 008°54'0 0.0
2015-Jun-27 23:34N 44°24' E 008°54'0 0.0
2015-Jun-27 22:34N 44°24' E 008°54'0 0.0
2015-Jun-27 21:33N 44°24' E 008°54'0 0.0
2015-Jun-27 20:33N 44°24' E 008°54'0 0.0
2015-Jun-27 19:33N 44°24' E 008°54'0 0.1
2015-Jun-27 18:34N 44°24' E 008°54'1 0.6
2015-Jun-27 17:34N 44°25' E 008°55'0 0.0
2015-Jun-27 16:33N 44°25' E 008°55'1 0.7
2015-Jun-27 15:33N 44°24' E 008°55'1 0.6
2015-Jun-27 14:33N 44°24' E 008°54'0 0.0
2015-Jun-27 13:33N 44°24' E 008°54'0 0.0
2015-Jun-27 12:33N 44°24' E 008°54'0 0.0
2015-Jun-27 11:33N 44°24' E 008°54'0 0.0
2015-Jun-27 10:33N 44°24' E 008°54'0 0.0
2015-Jun-27 09:33N 44°24' E 008°54'  

Dump ship's entire track history